Time;durP1;ratioP1;P1;durP2;ratioP2;P2;SDS_P1;SDS_P2;PMS_P1;PMS_P2;Temp;Humidity;BMP_temperature;BMP_pressure;BME280_temperature;BME280_humidity;BME280_pressure;Samples;Min_cycle;Max_cycle;Signal;HPM_P1;HPM_P2
2023/09/23 00:01:04;;;;;;;2.75;0.50;;;13.40;82.70;;;11.86;100.00;95460.47;6041103;23;20366;-64
2023/09/23 00:03:33;;;;;;;1.20;0.60;;;13.30;82.60;;;11.86;100.00;95473.63;6063619;23;20045;-63
2023/09/23 00:06:00;;;;;;;1.20;0.50;;;13.20;82.00;;;11.87;100.00;95472.63;6088181;23;20034;-64
2023/09/23 00:08:26;;;;;;;0.98;0.50;;;13.40;81.90;;;11.87;100.00;95467.34;6064157;23;20018;-64
2023/09/23 00:10:51;;;;;;;1.48;0.50;;;13.30;82.40;;;11.88;100.00;95471.59;6063844;23;20019;-61
2023/09/23 00:13:20;;;;;;;1.23;0.50;;;13.30;82.00;;;11.85;100.00;95470.19;6064282;23;20098;-62
2023/09/23 00:15:46;;;;;;;3.67;0.60;;;13.30;82.10;;;11.86;100.00;95474.44;6089318;23;20763;-62
2023/09/23 00:18:17;;;;;;;2.25;0.60;;;13.30;82.30;;;11.84;100.00;95483.59;6066415;23;20011;-63
2023/09/23 00:20:44;;;;;;;;;;;13.30;82.10;;;11.82;100.00;95490.91;6067174;23;20101;-63
2023/09/23 00:23:10;;;;;;;1.80;0.50;;;13.20;82.30;;;11.80;100.00;95483.22;6089723;23;20311;-63
2023/09/23 00:25:36;;;;;;;1.23;0.50;;;13.20;82.50;;;11.80;100.00;95496.38;6063152;23;20026;-63
2023/09/23 00:28:02;;;;;;;2.50;0.68;;;13.20;82.50;;;11.77;100.00;95486.25;6092262;23;20015;-63
2023/09/23 00:30:28;;;;;;;0.80;0.50;;;13.20;82.40;;;11.74;100.00;95486.63;6065790;23;20018;-62
2023/09/23 00:32:53;;;;;;;1.85;0.63;;;13.10;82.20;;;11.73;100.00;95492.13;6065921;23;20018;-63
2023/09/23 00:35:19;;;;;;;1.13;0.60;;;13.10;82.00;;;11.70;100.00;95480.19;6090645;23;20038;-63
2023/09/23 00:37:48;;;;;;;2.65;0.70;;;13.10;82.20;;;11.68;100.00;95473.50;6091181;23;20047;-63
2023/09/23 00:40:20;;;;;;;1.92;0.80;;;13.00;82.50;;;11.65;100.00;95480.00;6091128;23;20010;-63
2023/09/23 00:42:48;;;;;;;2.13;0.70;;;12.90;82.60;;;11.61;100.00;95478.81;6066894;23;20042;-63
2023/09/23 00:45:16;;;;;;;1.08;0.80;;;12.90;83.20;;;11.61;100.00;95477.00;6066634;23;20029;-63
2023/09/23 00:47:45;;;;;;;2.00;0.80;;;13.00;83.20;;;11.63;100.00;95484.69;6065733;23;20017;-63
2023/09/23 00:50:18;;;;;;;0.88;0.68;;;13.00;83.30;;;11.62;100.00;95475.97;6065976;23;20014;-62
2023/09/23 00:52:51;;;;;;;1.73;0.70;;;13.00;83.30;;;11.64;100.00;95479.19;6067090;23;20050;-65
2023/09/23 00:55:17;;;;;;;1.83;0.80;;;13.00;83.50;;;11.64;100.00;95484.47;6091381;23;20013;-64
2023/09/23 00:57:46;;;;;;;1.02;0.70;;;13.10;83.40;;;11.65;100.00;95496.63;6066554;23;20002;-64
2023/09/23 01:00:12;;;;;;;1.73;0.80;;;13.10;83.50;;;11.67;100.00;95496.41;6066617;23;20018;-65
2023/09/23 01:02:37;;;;;;;1.92;0.90;;;13.10;83.50;;;11.67;100.00;95509.59;6065141;23;20082;-65
2023/09/23 01:05:05;;;;;;;1.10;0.80;;;13.10;83.30;;;11.69;100.00;95501.47;6066195;23;20042;-63
2023/09/23 01:07:33;;;;;;;2.80;1.00;;;13.10;83.30;;;11.68;100.00;95500.66;6066127;23;20013;-63
2023/09/23 01:09:59;;;;;;;2.78;0.73;;;13.10;83.30;;;11.69;100.00;95501.47;6067231;23;20007;-62
2023/09/23 01:12:25;;;;;;;1.13;0.57;;;13.10;83.40;;;11.67;100.00;95504.31;6065974;23;20029;-62
2023/09/23 01:14:52;;;;;;;1.75;0.77;;;13.10;83.40;;;11.69;100.00;95506.72;6041479;23;20195;-62
2023/09/23 01:17:17;;;;;;;1.20;0.70;;;13.10;83.30;;;11.68;100.00;95507.75;6066234;23;20077;-63
2023/09/23 01:19:43;;;;;;;1.30;0.80;;;13.10;83.70;;;11.69;100.00;95517.28;6091188;23;20089;-62
2023/09/23 01:22:09;;;;;;;1.88;0.73;;;13.10;83.60;;;11.68;100.00;95526.19;6090318;23;20122;-62
2023/09/23 01:24:35;;;;;;;1.35;0.90;;;13.10;83.60;;;11.67;100.00;95535.91;6087489;23;20025;-64
2023/09/23 01:27:03;;;;;;;1.77;0.80;;;13.10;83.60;;;11.65;100.00;95538.78;6065946;23;20049;-63
2023/09/23 01:29:29;;;;;;;1.85;0.82;;;13.10;83.80;;;11.64;100.00;95552.97;6090393;23;20017;-63
2023/09/23 01:32:34;;;;;;;1.85;0.52;;;13.10;83.90;;;11.64;100.00;95549.50;6065636;23;20472;-64
2023/09/23 01:35:04;;;;;;;2.20;0.70;;;13.10;84.10;;;11.63;100.00;95546.06;6069959;23;20018;-64
2023/09/23 01:37:31;;;;;;;2.20;0.70;;;13.10;84.10;;;11.63;100.00;95551.34;6066744;23;20026;-63
2023/09/23 01:39:56;;;;;;;1.70;0.70;;;13.10;84.00;;;11.63;100.00;95572.41;6090353;23;20062;-65
2023/09/23 01:42:22;;;;;;;1.67;0.80;;;13.10;84.20;;;11.65;100.00;95574.84;6089972;23;20022;-64
2023/09/23 01:44:48;;;;;;;2.50;0.70;;;13.10;84.30;;;11.67;100.00;95567.53;6065435;23;20124;-64
2023/09/23 01:47:20;;;;;;;1.52;0.70;;;13.20;84.20;;;11.69;100.00;95575.22;6065918;23;20127;-64
2023/09/23 01:49:46;;;;;;;4.05;0.82;;;13.20;84.00;;;11.71;100.00;95578.47;6088691;23;20078;-62
2023/09/23 01:52:15;;;;;;;1.02;0.70;;;13.20;84.10;;;11.72;100.00;95582.72;6088579;23;20014;-62
2023/09/23 01:54:40;;;;;;;1.40;0.98;;;13.10;84.10;;;11.74;100.00;95583.31;6089472;23;20021;-63
2023/09/23 01:57:06;;;;;;;1.58;1.00;;;13.20;84.30;;;11.75;100.00;95583.09;6088906;23;20014;-62
2023/09/23 01:59:32;;;;;;;3.47;0.90;;;13.20;84.20;;;11.76;100.00;95581.28;6089169;23;20060;-62
2023/09/23 02:01:59;;;;;;;1.25;0.80;;;13.20;84.20;;;11.75;100.00;95587.56;6041019;23;20472;-62
2023/09/23 02:04:24;;;;;;;1.13;0.70;;;13.10;84.30;;;11.76;100.00;95581.28;6065633;23;20089;-63
2023/09/23 02:06:51;;;;;;;1.67;0.60;;;13.20;84.30;;;11.78;100.00;95579.25;6041908;23;20010;-63
2023/09/23 02:09:17;;;;;;;2.38;0.82;;;13.20;84.10;;;11.80;100.00;95587.81;6065633;23;20019;-62
2023/09/23 02:11:43;;;;;;;2.50;0.90;;;13.30;84.20;;;11.79;100.00;95588.81;6089058;23;20408;-62
2023/09/23 02:14:09;;;;;;;1.80;0.80;;;13.20;84.10;;;11.81;100.00;95600.75;6064984;23;20476;-62
2023/09/23 02:16:35;;;;;;;1.38;0.70;;;13.30;84.10;;;11.83;100.00;95597.91;6089216;23;20069;-62
2023/09/23 02:19:02;;;;;;;1.00;0.50;;;13.40;83.70;;;11.85;100.00;95611.69;6065531;23;20014;-62
2023/09/23 02:21:28;;;;;;;2.40;0.60;;;13.30;83.60;;;11.86;100.00;95610.66;6065819;23;20014;-63
2023/09/23 02:23:55;;;;;;;1.58;0.85;;;13.40;84.00;;;11.87;100.00;95609.66;6062708;23;20044;-63
2023/09/23 02:26:22;;;;;;;1.23;0.60;;;13.40;83.80;;;11.88;100.00;95613.91;6066043;23;20018;-62
2023/09/23 02:28:48;;;;;;;1.85;0.70;;;13.40;83.90;;;11.90;100.00;95617.94;6088833;23;20057;-62
2023/09/23 02:31:15;;;;;;;1.38;0.60;;;13.50;83.80;;;11.93;100.00;95619.34;6065845;23;20037;-63
2023/09/23 02:33:43;;;;;;;2.30;0.68;;;13.50;83.80;;;11.95;100.00;95617.31;6065517;23;20029;-63
2023/09/23 02:36:09;;;;;;;2.53;0.70;;;13.50;83.60;;;11.96;100.00;95609.19;6041677;23;20018;-63
2023/09/23 02:38:35;;;;;;;1.90;0.52;;;13.60;83.50;;;11.97;100.00;95620.53;6065265;23;20029;-64
2023/09/23 02:41:04;;;;;;;2.45;0.70;;;13.60;83.40;;;11.96;100.00;95613.66;6088423;23;20053;-62
2023/09/23 02:43:29;;;;;;;1.67;0.80;;;13.40;83.00;;;11.95;100.00;95620.75;6089040;23;20014;-63
2023/09/23 02:46:00;;;;;;;0.77;0.40;;;13.40;83.40;;;11.96;100.00;95613.66;6065816;23;20048;-63
2023/09/23 02:48:26;;;;;;;;;;;13.40;83.50;;;11.94;100.00;95613.88;6090039;23;20490;-63
2023/09/23 02:50:53;;;;;;;3.08;0.70;;;13.40;83.50;;;11.93;100.00;95609.63;6088240;23;19917;-63
2023/09/23 02:53:19;;;;;;;2.10;0.80;;;13.40;83.60;;;11.95;100.00;95606.78;6064595;23;20018;-63
2023/09/23 02:55:51;;;;;;;1.00;0.60;;;13.50;83.20;;;11.96;100.00;95603.94;6088683;23;20022;-62
2023/09/23 02:58:18;;;;;;;1.00;0.50;;;13.50;83.20;;;11.98;100.00;95606.34;6066225;23;20006;-64
2023/09/23 03:00:57;;;;;;;1.17;0.68;;;13.50;83.10;;;12.00;100.00;95608.81;6065337;23;20057;-63
2023/09/23 03:03:24;;;;;;;1.02;0.70;;;13.60;82.90;;;11.98;100.00;95616.91;6065870;23;20093;-63
2023/09/23 03:05:55;;;;;;;2.30;0.77;;;13.40;83.00;;;11.97;100.00;95615.28;6064325;23;20085;-63
2023/09/23 03:08:22;;;;;;;;;;;13.50;83.00;;;11.97;100.00;95617.91;6066382;23;20014;-62
2023/09/23 03:10:49;;;;;;;1.67;0.60;;;13.50;83.10;;;11.97;100.00;95620.53;6088292;23;19910;-62
2023/09/23 03:13:17;;;;;;;2.03;0.60;;;13.50;83.10;;;11.98;100.00;95608.19;6088813;23;20843;-63
2023/09/23 03:18:34;;;;;;;3.35;0.80;;;13.50;83.20;;;11.98;100.00;95614.25;6069579;23;20077;-63
2023/09/23 03:21:17;;;;;;;3.00;0.80;;;13.60;83.20;;;11.99;100.00;95621.16;6064351;23;20030;-62
2023/09/23 03:23:44;;;;;;;1.40;0.80;;;13.50;83.10;;;12.01;100.00;95620.97;6085436;23;20596;-65
2023/09/23 03:26:12;;;;;;;2.92;1.05;;;13.50;83.10;;;12.01;100.00;95621.78;6088041;23;20037;-63
2023/09/23 03:28:42;;;;;;;2.08;0.80;;;13.60;83.20;;;12.01;100.00;95620.97;6063793;23;20118;-64
2023/09/23 03:31:08;;;;;;;2.95;0.70;;;13.50;83.10;;;11.99;100.00;95618.50;6064958;23;20021;-66
2023/09/23 03:33:37;;;;;;;1.33;0.70;;;13.50;83.30;;;11.98;100.00;95616.91;6087879;23;20082;-65
2023/09/23 03:36:05;;;;;;;1.27;0.60;;;13.40;83.00;;;11.98;100.00;95626.63;6064070;23;20101;-64
2023/09/23 03:38:32;;;;;;;2.72;0.80;;;13.40;83.40;;;11.98;100.00;95632.72;6041538;23;20018;-67
2023/09/23 03:40:59;;;;;;;1.27;0.98;;;13.40;83.20;;;11.98;100.00;95635.34;6087376;23;20677;-67
2023/09/23 03:43:25;;;;;;;1.10;0.80;;;13.40;83.30;;;11.99;100.00;95638.78;6064440;23;20405;-67
2023/09/23 03:45:54;;;;;;;4.55;0.85;;;13.50;83.50;;;12.00;100.00;95638.59;6064501;23;20393;-64
2023/09/23 03:48:19;;;;;;;5.28;1.48;;;13.50;83.50;;;12.00;100.00;95645.72;6064402;23;20050;-64
2023/09/23 03:50:51;;;;;;;1.95;0.90;;;13.40;83.50;;;12.00;100.00;95641.25;6039356;23;20022;-65
2023/09/23 03:53:17;;;;;;;3.00;1.00;;;13.50;83.30;;;12.01;100.00;95647.31;6039856;23;20404;-64
2023/09/23 03:55:42;;;;;;;1.30;0.80;;;13.60;83.40;;;12.01;100.00;95653.41;6089653;23;20022;-64
2023/09/23 03:58:09;;;;;;;2.45;1.02;;;13.50;83.50;;;12.00;100.00;95657.06;6089543;23;20089;-65
2023/09/23 04:00:35;;;;;;;2.40;1.02;;;13.50;83.60;;;12.02;100.00;95660.28;6064204;23;20661;-64
2023/09/23 04:03:00;;;;;;;3.03;1.10;;;13.50;83.60;;;12.02;100.00;95660.28;6063405;23;20018;-64
2023/09/23 04:05:28;;;;;;;1.00;0.80;;;13.60;83.50;;;12.03;100.00;95669.81;6063946;23;20049;-65
2023/09/23 04:07:54;;;;;;;2.38;1.10;;;13.60;83.40;;;12.03;100.00;95672.44;6088232;23;20014;-64
2023/09/23 04:10:23;;;;;;;2.53;1.38;;;13.50;83.60;;;12.02;100.00;95678.75;6087878;23;20334;-64
2023/09/23 04:12:49;;;;;;;4.10;1.30;;;13.50;83.50;;;12.02;100.00;95684.00;6064911;23;20010;-64
2023/09/23 04:15:15;;;;;;;2.90;1.35;;;13.50;83.80;;;12.00;100.00;95688.69;6087798;23;20099;-64
2023/09/23 04:17:41;;;;;;;1.67;1.00;;;13.50;83.70;;;12.00;100.00;95699.22;6055158;23;20460;-65
2023/09/23 04:20:11;;;;;;;3.42;1.45;;;13.50;83.80;;;12.00;100.00;95698.44;6039793;23;20030;-65
2023/09/23 04:22:37;;;;;;;3.08;1.13;;;13.50;83.70;;;12.00;100.00;95709.78;6040661;23;20057;-64
2023/09/23 04:25:07;;;;;;;2.58;1.20;;;13.50;83.70;;;11.99;100.00;95713.41;6014874;23;20658;-65
2023/09/23 04:27:33;;;;;;;3.35;1.13;;;13.50;83.80;;;11.98;100.00;95717.06;6040268;23;20101;-64
2023/09/23 04:30:01;;;;;;;3.17;1.55;;;13.50;83.60;;;11.97;100.00;95710.16;6039986;23;20038;-64
2023/09/23 04:32:27;;;;;;;6.03;1.33;;;13.50;83.60;;;11.96;100.00;95714.63;6016319;23;20033;-65
2023/09/23 04:34:53;;;;;;;2.65;1.30;;;13.60;83.60;;;11.96;100.00;95724.34;6039982;23;20109;-66
2023/09/23 04:37:18;;;;;;;2.05;1.30;;;13.50;83.60;;;11.96;100.00;95729.63;6062509;23;20641;-65
2023/09/23 04:39:44;;;;;;;1.70;1.17;;;13.60;83.40;;;11.96;100.00;95734.91;6016352;23;20121;-65
2023/09/23 04:42:11;;;;;;;12.90;10.48;;;13.60;83.30;;;11.96;100.00;95737.53;6062659;23;20024;-65
2023/09/23 04:44:37;;;;;;;11.13;8.68;;;13.60;83.50;;;11.95;100.00;95733.28;6065806;23;20486;-65
2023/09/23 04:47:03;;;;;;;4.50;2.75;;;13.50;83.60;;;11.96;100.00;95740.97;6015483;23;20101;-66
2023/09/23 04:49:28;;;;;;;5.57;1.80;;;13.50;83.50;;;11.94;100.00;95745.66;6016056;23;20412;-65
2023/09/23 04:51:54;;;;;;;1.75;1.08;;;13.40;83.50;;;11.92;100.00;95746.88;6040574;23;20157;-65
2023/09/23 04:54:22;;;;;;;20.17;13.50;;;13.40;83.50;;;11.91;100.00;95753.16;6063186;23;20133;-66
2023/09/23 04:56:50;;;;;;;39.17;26.05;;;13.50;83.70;;;11.90;100.00;95751.53;6063563;23;20648;-65
2023/09/23 04:59:15;;;;;;;5.40;3.67;;;13.40;83.80;;;11.86;100.00;95750.34;6039841;23;20018;-65
2023/09/23 05:01:41;;;;;;;3.08;1.40;;;13.40;83.60;;;11.82;100.00;95744.69;6016518;23;20161;-66
2023/09/23 05:04:08;;;;;;;2.20;1.50;;;13.30;83.20;;;11.81;100.00;95743.06;6053076;23;20051;-64
2023/09/23 05:06:36;;;;;;;2.45;1.42;;;13.30;83.40;;;11.80;100.00;95745.91;6065184;23;20081;-64
2023/09/23 05:09:02;;;;;;;15.60;10.02;;;13.20;83.60;;;11.78;100.00;95747.91;6088750;23;20023;-63
2023/09/23 05:11:28;;;;;;;29.05;19.77;;;13.30;83.40;;;11.76;100.00;95760.44;6065157;23;20076;-63
2023/09/23 05:13:54;;;;;;;14.18;10.23;;;13.20;83.40;;;11.76;100.00;95770.97;6088637;23;20724;-64
2023/09/23 05:16:19;;;;;;;9.95;4.57;;;13.30;83.50;;;11.75;100.00;95772.81;6065111;23;20476;-65
2023/09/23 05:18:46;;;;;;;54.08;37.17;;;13.30;83.40;;;11.74;100.00;95773.81;6065816;23;20302;-65
2023/09/23 05:21:13;;;;;;;19.73;13.82;;;13.30;83.60;;;11.75;100.00;95780.72;6064675;23;20022;-63
2023/09/23 05:23:41;;;;;;;5.53;3.42;;;13.30;83.40;;;11.75;100.00;95782.53;6063554;23;20108;-63
2023/09/23 05:26:07;;;;;;;4.25;2.05;;;13.30;83.30;;;11.73;100.00;95776.66;6065253;23;20026;-66
2023/09/23 05:28:33;;;;;;;2.35;1.85;;;13.30;83.20;;;11.72;100.00;95781.13;6041033;23;20011;-65
2023/09/23 05:30:59;;;;;;;4.10;2.33;;;13.30;83.30;;;11.72;100.00;95777.69;6065139;23;20085;-63
2023/09/23 05:33:25;;;;;;;7.18;1.83;;;13.30;83.00;;;11.71;100.00;95782.13;6064820;23;20070;-64
2023/09/23 05:35:52;;;;;;;3.55;1.98;;;13.20;83.20;;;11.69;100.00;95789.44;6065172;23;20458;-63
2023/09/23 05:38:19;;;;;;;3.72;1.30;;;13.10;83.20;;;11.69;100.00;95794.72;6064573;23;20014;-63
2023/09/23 05:40:46;;;;;;;2.40;1.48;;;13.20;83.20;;;11.68;100.00;95800.19;6089152;23;20088;-64
2023/09/23 05:43:12;;;;;;;5.00;3.13;;;13.10;83.20;;;11.68;100.00;95794.91;6041444;23;20224;-65
2023/09/23 05:45:37;;;;;;;18.25;12.00;;;13.20;82.80;;;11.69;100.00;95801.81;6041176;23;20018;-64
2023/09/23 05:48:05;;;;;;;13.40;9.35;;;13.20;82.80;;;11.69;100.00;95796.53;6040738;23;20500;-63
2023/09/23 05:50:31;;;;;;;12.27;8.60;;;13.10;82.30;;;11.69;100.00;95807.06;6065340;23;20416;-64
2023/09/23 05:52:57;;;;;;;10.43;6.03;;;13.20;82.20;;;11.68;100.00;95821.25;6064558;23;20015;-64
2023/09/23 05:55:23;;;;;;;8.85;4.68;;;13.20;82.00;;;11.66;100.00;95814.38;6064854;23;20464;-65
2023/09/23 05:57:52;;;;;;;3.33;1.90;;;13.20;82.10;;;11.66;100.00;95822.28;6065122;23;20097;-63
2023/09/23 06:00:17;;;;;;;3.50;1.45;;;13.20;81.90;;;11.65;100.00;95823.28;6087948;23;20476;-64
2023/09/23 06:02:47;;;;;;;1.52;1.08;;;13.20;81.90;;;11.66;100.00;95826.72;6088357;23;20022;-64
2023/09/23 06:05:15;;;;;;;2.75;1.10;;;13.20;81.50;;;11.68;100.00;95831.78;6041900;23;20018;-64
2023/09/23 06:07:41;;;;;;;4.57;1.48;;;13.30;81.50;;;11.69;100.00;95843.97;6088981;23;20496;-64
2023/09/23 06:10:08;;;;;;;4.57;1.40;;;13.20;81.40;;;11.70;100.00;95840.31;6065072;23;20015;-65
2023/09/23 06:12:34;;;;;;;1.98;1.17;;;13.30;81.30;;;11.71;100.00;95852.47;6087787;23;20018;-64
2023/09/23 06:15:00;;;;;;;2.10;1.00;;;13.20;80.80;;;11.73;100.00;95853.88;6064382;23;20030;-64
2023/09/23 06:17:27;;;;;;;3.42;1.40;;;13.30;80.80;;;11.75;100.00;95864.22;6040402;23;20022;-64
2023/09/23 06:19:56;;;;;;;1.48;0.95;;;13.30;80.60;;;11.76;100.00;95868.47;6064829;23;20022;-64
2023/09/23 06:22:23;;;;;;;2.03;1.13;;;13.30;80.10;;;11.78;100.00;95874.38;6040653;23;20021;-64
2023/09/23 06:24:52;;;;;;;1.48;0.90;;;13.40;80.20;;;11.79;100.00;95870.75;6063438;23;20077;-65
2023/09/23 06:27:19;;;;;;;1.77;0.90;;;13.50;79.90;;;11.82;100.00;95865.09;6088258;23;20092;-65
2023/09/23 06:29:45;;;;;;;10.02;6.07;;;13.60;79.80;;;11.85;100.00;95875.22;6065041;23;20475;-65
2023/09/23 06:32:11;;;;;;;3.92;2.90;;;13.50;79.50;;;11.87;100.00;95875.81;6063926;23;20014;-65
2023/09/23 06:34:37;;;;;;;3.20;1.52;;;13.60;78.90;;;11.89;100.00;95879.06;6040535;23;20101;-64
2023/09/23 06:37:03;;;;;;;3.03;1.13;;;13.60;77.80;;;11.92;100.00;95891.84;6088919;23;20009;-64
2023/09/23 06:39:29;;;;;;;2.00;0.88;;;13.70;77.80;;;11.92;100.00;95897.09;6064807;23;20070;-64
2023/09/23 06:41:55;;;;;;;3.08;2.03;;;13.60;77.20;;;11.92;100.00;95908.47;6064547;23;20022;-64
2023/09/23 06:44:21;;;;;;;14.93;10.43;;;13.60;77.60;;;11.99;100.00;95902.38;6040134;23;20015;-65
2023/09/23 06:46:50;;;;;;;10.10;7.65;;;13.80;78.40;;;12.05;100.00;95906.88;6064703;23;20455;-65
2023/09/23 06:49:17;;;;;;;16.38;11.98;;;13.90;77.90;;;12.12;100.00;95912.94;6064708;23;20404;-70
2023/09/23 06:51:42;;;;;;;23.25;16.48;;;14.00;77.90;;;12.16;100.00;95920.22;6040904;23;20121;-65
2023/09/23 06:54:08;;;;;;;7.35;4.40;;;14.00;77.00;;;12.19;100.00;95914.53;6063859;23;20026;-64
2023/09/23 06:56:37;;;;;;;4.65;2.97;;;14.00;76.90;;;12.23;100.00;95918.44;6064376;23;20027;-65
2023/09/23 06:59:03;;;;;;;3.47;2.33;;;14.10;77.00;;;12.29;100.00;95918.63;6064495;23;20025;-64
2023/09/23 07:01:29;;;;;;;3.35;2.00;;;14.10;76.90;;;12.33;100.00;95914.56;6040195;23;20412;-64
2023/09/23 07:03:54;;;;;;;12.68;9.55;;;14.10;76.70;;;12.36;100.00;95919.41;6064589;23;20181;-69
2023/09/23 07:06:20;;;;;;;31.48;23.77;;;14.20;76.60;;;12.41;100.00;95922.25;6063290;23;20007;-68
2023/09/23 07:08:46;;;;;;;27.25;20.38;;;14.30;76.80;;;12.44;100.00;95916.56;6064822;23;20357;-68
2023/09/23 07:11:13;;;;;;;2.28;1.88;;;14.30;76.30;;;12.46;100.00;95930.38;6041585;23;20468;-67
2023/09/23 07:13:39;;;;;;;2.33;1.60;;;14.20;75.40;;;12.50;100.00;95931.59;6064403;23;20037;-67
2023/09/23 07:16:05;;;;;;;2.13;1.00;;;14.40;75.70;;;12.52;100.00;95937.47;6041095;23;20089;-69
2023/09/23 07:18:31;;;;;;;2.33;1.50;;;14.40;75.50;;;12.57;100.00;95937.66;6088124;23;20014;-65
2023/09/23 07:20:57;;;;;;;5.00;2.20;;;14.50;75.70;;;12.58;100.00;95939.28;6064163;23;20018;-65
2023/09/23 07:23:23;;;;;;;26.63;18.20;;;14.40;74.50;;;12.63;100.00;95947.38;6061440;23;20019;-65
2023/09/23 07:25:49;;;;;;;14.75;11.98;;;14.50;74.70;;;12.67;100.00;95948.59;6040631;23;20452;-65
2023/09/23 07:28:16;;;;;;;6.35;4.25;;;14.50;74.20;;;12.69;100.00;95958.97;6040719;23;20018;-67
2023/09/23 07:30:42;;;;;;;2.30;1.25;;;14.60;74.00;;;12.73;100.00;95961.00;6064526;23;20011;-65
2023/09/23 07:33:08;;;;;;;1.52;1.02;;;14.60;73.70;;;12.79;100.00;95969.91;6064303;23;20070;-67
2023/09/23 07:35:34;;;;;;;2.20;1.02;;;14.60;73.10;;;12.83;100.00;95969.28;6064287;23;20034;-64
2023/09/23 07:38:00;;;;;;;2.25;0.70;;;14.80;73.20;;;12.89;100.00;95972.91;6064263;23;20086;-65
2023/09/23 07:40:27;;;;;;;1.67;0.73;;;14.80;71.80;;;12.94;100.00;95980.25;6063383;23;20020;-65
2023/09/23 07:42:53;;;;;;;2.55;0.90;;;14.90;72.20;;;13.00;100.00;95982.06;6064736;23;20078;-66
2023/09/23 07:45:19;;;;;;;2.67;1.05;;;15.00;72.50;;;13.07;100.00;95985.47;6039714;23;20022;-65
2023/09/23 07:47:45;;;;;;;3.05;0.90;;;15.10;71.70;;;13.14;100.00;95995.03;6064068;23;20530;-69
2023/09/23 07:50:11;;;;;;;1.85;0.90;;;15.20;72.40;;;13.23;100.00;95998.28;6087467;23;20026;-68
2023/09/23 07:52:37;;;;;;;2.03;0.60;;;15.30;72.00;;;13.28;100.00;96003.75;6039884;23;20029;-67
2023/09/23 07:55:04;;;;;;;1.83;0.50;;;15.20;70.30;;;13.32;100.00;96004.13;6064964;23;20002;-63
2023/09/23 07:57:32;;;;;;;3.55;1.08;;;15.20;70.60;;;13.38;100.00;96003.31;6063570;23;20037;-64
2023/09/23 07:59:58;;;;;;;1.08;0.70;;;15.30;70.70;;;13.43;100.00;96012.25;6064609;23;20097;-63
2023/09/23 08:02:24;;;;;;;1.33;0.70;;;15.40;70.90;;;13.49;100.00;96018.50;6039844;23;20837;-67
2023/09/23 08:04:50;;;;;;;2.83;0.82;;;15.40;70.20;;;13.56;100.00;96026.41;6089119;23;20023;-65
2023/09/23 08:07:15;;;;;;;1.60;0.77;;;15.60;70.00;;;13.63;100.00;96032.50;6040201;23;20041;-67
2023/09/23 08:09:41;;;;;;;2.80;1.08;;;15.60;70.50;;;13.70;100.00;96034.09;6064070;23;20042;-65
2023/09/23 08:12:07;;;;;;;1.58;0.77;;;15.80;70.00;;;13.78;100.00;96027.75;6064028;23;20018;-68
2023/09/23 08:14:33;;;;;;;3.25;0.80;;;15.80;69.20;;;13.83;100.00;96038.53;6087118;23;20372;-69
2023/09/23 08:16:58;;;;;;;1.83;0.57;;;15.80;69.60;;;13.91;100.00;96030.34;6063849;23;20022;-64
2023/09/23 08:19:24;;;;;;;1.50;0.82;;;15.90;69.90;;;13.97;100.00;96040.06;6087227;23;20090;-64
2023/09/23 08:21:50;;;;;;;1.48;0.70;;;16.00;69.30;;;14.01;100.00;96046.53;6064122;23;20049;-65
2023/09/23 08:24:16;;;;;;;2.05;0.80;;;15.90;68.20;;;14.03;100.00;96049.81;6084581;23;20038;-65
2023/09/23 08:26:43;;;;;;;1.15;0.70;;;15.90;69.00;;;14.09;100.00;96056.09;6087578;23;20042;-64
2023/09/23 08:29:09;;;;;;;8.50;6.38;;;16.00;69.10;;;14.10;100.00;96066.44;6089046;23;20014;-68
2023/09/23 08:31:36;;;;;;;8.82;7.15;;;15.90;69.60;;;14.14;100.00;96060.72;6038266;23;20021;-68
2023/09/23 08:34:04;;;;;;;3.17;2.25;;;16.00;69.90;;;14.18;100.00;96059.28;6086661;23;20006;-67
2023/09/23 08:36:29;;;;;;;4.03;1.63;;;16.10;69.40;;;14.17;100.00;96055.00;6039292;23;20018;-67
2023/09/23 08:38:55;;;;;;;2.00;1.17;;;16.00;69.50;;;14.21;100.00;96054.38;6039809;23;20041;-69
2023/09/23 08:41:22;;;;;;;2.53;1.88;;;16.10;69.20;;;14.24;100.00;96056.59;6038723;23;20029;-67
2023/09/23 08:43:50;;;;;;;1.17;0.80;;;16.10;68.40;;;14.28;99.17;96062.28;6039509;23;20029;-67
2023/09/23 08:46:16;;;;;;;1.52;0.93;;;16.20;68.30;;;14.34;98.99;96066.72;6064358;23;20033;-68
2023/09/23 08:48:42;;;;;;;1.10;0.80;;;16.30;68.50;;;14.41;99.34;96072.78;6040118;23;20045;-68
2023/09/23 08:51:11;;;;;;;1.70;0.90;;;16.40;68.90;;;14.49;100.00;96069.94;6039165;23;20456;-66
2023/09/23 08:53:39;;;;;;;2.35;0.90;;;16.50;69.50;;;14.54;100.00;96067.44;6086469;23;20053;-69
2023/09/23 08:56:06;;;;;;;2.72;1.83;;;16.60;68.50;;;14.63;99.33;96071.44;6064299;23;20345;-66
2023/09/23 08:58:32;;;;;;;5.32;3.63;;;16.70;68.20;;;14.74;98.98;96071.78;6063006;23;20010;-67
2023/09/23 09:00:58;;;;;;;3.80;2.33;;;17.00;67.50;;;14.83;97.40;96065.19;6064351;23;20058;-67
2023/09/23 09:03:24;;;;;;;5.45;2.85;;;17.00;66.20;;;14.91;97.31;96068.38;6062820;23;20066;-68
2023/09/23 09:05:50;;;;;;;1.75;1.00;;;17.10;66.10;;;14.99;95.18;96070.75;6063333;23;20019;-67
2023/09/23 09:08:18;;;;;;;4.80;1.02;;;17.20;65.30;;;15.12;95.56;96067.16;6087204;23;20699;-67
2023/09/23 09:10:44;;;;;;;2.30;0.80;;;17.50;65.40;;;15.26;96.43;96071.31;6087325;23;20101;-66
2023/09/23 09:13:09;;;;;;;2.55;1.00;;;17.70;65.10;;;15.41;93.25;96072.81;6064015;23;20484;-67
2023/09/23 09:15:36;;;;;;;3.65;0.90;;;17.90;62.20;;;15.56;91.87;96070.59;6062921;23;20082;-66
2023/09/23 09:18:02;;;;;;;1.52;0.70;;;18.00;62.10;;;15.69;89.25;96075.00;6089521;23;20015;-68
2023/09/23 09:20:28;;;;;;;1.88;0.93;;;18.10;59.30;;;15.83;88.14;96074.59;6086384;23;20607;-67
2023/09/23 09:22:54;;;;;;;1.58;0.60;;;18.50;59.90;;;16.01;85.88;96059.69;6087089;23;20022;-67
2023/09/23 09:25:20;;;;;;;1.67;0.70;;;18.70;57.30;;;16.22;83.36;96056.56;6084958;23;20463;-67
2023/09/23 09:27:46;;;;;;;1.27;0.65;;;19.00;55.80;;;16.44;82.50;96051.56;6064038;23;20761;-66
2023/09/23 09:30:13;;;;;;;2.58;0.80;;;19.40;55.30;;;16.70;80.89;96058.34;6087390;23;20018;-66
2023/09/23 09:32:44;;;;;;;3.45;0.75;;;19.50;55.10;;;16.87;79.48;96056.66;6019568;23;1058777;-67
2023/09/23 09:35:14;;;;;;;3.33;1.20;;;19.70;55.40;;;17.09;78.79;96054.25;6089260;23;20073;-66
2023/09/23 09:37:44;;;;;;;2.53;0.85;;;19.90;54.30;;;17.22;76.21;96047.91;6064757;23;20015;-67
2023/09/23 09:40:14;;;;;;;3.10;0.80;;;19.80;53.70;;;17.29;76.16;96045.94;6065957;23;20011;-67
2023/09/23 09:42:40;;;;;;;;;;;19.90;54.30;;;17.39;74.87;96048.78;6088909;23;20014;-66
2023/09/23 09:45:09;;;;;;;1.73;0.80;;;20.10;54.40;;;17.47;77.67;96061.75;6113294;23;20354;-67
2023/09/23 09:47:36;;;;;;;1.52;0.70;;;20.10;54.10;;;17.60;78.47;96058.03;6040910;23;20487;-66
2023/09/23 09:50:03;;;;;;;2.22;0.80;;;20.50;53.30;;;17.68;75.55;96060.38;6064801;23;20398;-67
2023/09/23 09:52:28;;;;;;;0.75;0.57;;;20.30;52.20;;;17.73;74.30;96055.97;6064467;23;20015;-66
2023/09/23 09:55:00;;;;;;;1.88;0.70;;;20.30;51.40;;;17.78;72.24;96047.28;6041906;23;20041;-68
2023/09/23 09:57:29;;;;;;;2.13;0.90;;;20.10;52.50;;;17.76;72.57;96057.34;6065249;23;20054;-66
2023/09/23 10:00:07;;;;;;;4.78;1.25;;;20.00;51.50;;;17.74;70.52;96046.94;6065342;23;20026;-67
2023/09/23 10:02:33;;;;;;;17.15;14.18;;;20.00;53.30;;;17.72;72.82;96057.00;6088188;23;20108;-66
2023/09/23 10:05:02;;;;;;;2.35;1.50;;;20.10;52.90;;;17.69;67.92;96032.72;6017042;23;20022;-66
2023/09/23 10:07:53;;;;;;;3.05;0.93;;;19.60;50.90;;;17.65;66.67;96032.38;6040690;23;20006;-66
2023/09/23 10:10:34;;;;;;;2.13;0.90;;;19.90;51.40;;;17.73;67.30;96045.31;6042402;23;20014;-67
2023/09/23 10:13:13;;;;;;;4.53;1.10;;;20.70;50.40;;;18.00;67.53;96036.78;6042655;23;20017;-66
2023/09/23 10:15:40;;;;;;;1.77;0.63;;;21.10;49.70;;;18.20;69.51;96049.69;6065744;23;20128;-66